createdAt,value
2018-09-15T00:05:34.934Z,12.60
2018-09-15T00:11:39.793Z,12.80
2018-09-15T00:17:46.551Z,12.90
2018-09-15T00:23:51.349Z,12.90
2018-09-15T00:29:56.133Z,13.00
2018-09-15T00:36:00.881Z,12.90
2018-09-15T00:42:13.209Z,12.70
2018-09-15T00:48:17.975Z,12.50
2018-09-15T00:54:22.650Z,12.10
2018-09-15T01:00:27.445Z,12.10
2018-09-15T01:06:32.220Z,12.00
2018-09-15T01:12:37.374Z,12.10
2018-09-15T01:18:42.035Z,12.20
2018-09-15T01:24:47.343Z,12.20
2018-09-15T01:30:52.085Z,12.00
2018-09-15T01:36:56.835Z,11.80
2018-09-15T01:43:01.511Z,11.70
2018-09-15T01:49:06.353Z,11.70
2018-09-15T01:55:11.694Z,11.60
2018-09-15T02:01:16.732Z,11.50
2018-09-15T02:07:21.552Z,11.50
2018-09-15T02:13:26.213Z,11.50
2018-09-15T02:19:30.960Z,11.20
2018-09-15T02:25:35.760Z,11.10
2018-09-15T02:31:41.777Z,11.10
2018-09-15T02:37:46.477Z,11.20
2018-09-15T02:43:51.611Z,11.40
2018-09-15T02:49:56.435Z,11.60
2018-09-15T02:56:01.362Z,11.80
2018-09-15T03:02:06.125Z,12.00
2018-09-15T03:08:11.516Z,12.00
2018-09-15T03:14:16.498Z,12.20
2018-09-15T03:20:21.288Z,12.20
2018-09-15T03:26:26.090Z,12.20
2018-09-15T03:32:30.781Z,12.20
2018-09-15T03:38:35.622Z,12.20
2018-09-15T03:44:40.927Z,11.90
2018-09-15T03:50:46.223Z,11.60
2018-09-15T03:56:51.541Z,11.50
2018-09-15T04:02:56.327Z,11.30
2018-09-15T04:09:01.094Z,11.20
2018-09-15T04:15:05.869Z,11.20
2018-09-15T04:21:10.856Z,11.20
2018-09-15T04:27:15.531Z,11.10
2018-09-15T04:33:20.554Z,11.00
2018-09-15T04:39:25.669Z,10.90
2018-09-15T04:45:30.668Z,10.80
2018-09-15T04:51:35.311Z,10.80
2018-09-15T04:57:40.883Z,10.70
2018-09-15T05:03:46.037Z,10.70
2018-09-15T05:09:50.763Z,10.70
2018-09-15T05:15:55.607Z,10.60
2018-09-15T05:22:00.459Z,10.50
2018-09-15T05:28:05.242Z,10.50
2018-09-15T05:34:10.016Z,10.60
2018-09-15T05:40:14.856Z,10.60
2018-09-15T05:46:19.529Z,10.70
2018-09-15T05:52:24.368Z,10.80
2018-09-15T05:58:29.038Z,10.90
2018-09-15T06:04:33.750Z,11.10
2018-09-15T06:10:38.426Z,11.30
2018-09-15T06:16:43.342Z,11.50
2018-09-15T06:22:48.003Z,11.70
2018-09-15T06:28:53.115Z,11.90
2018-09-15T06:34:57.977Z,12.20
2018-09-15T06:41:02.773Z,12.50
2018-09-15T06:47:07.601Z,13.60
2018-09-15T06:53:12.281Z,13.70
2018-09-15T06:59:17.108Z,13.70
2018-09-15T07:05:22.048Z,13.60
2018-09-15T07:11:26.718Z,13.90
2018-09-15T07:17:31.424Z,16.80
2018-09-15T07:23:36.117Z,19.70
2018-09-15T07:29:41.359Z,19.70
2018-09-15T07:35:46.255Z,18.50
2018-09-15T07:41:50.914Z,17.20
2018-09-15T07:47:55.684Z,17.00
2018-09-15T07:54:00.461Z,17.10
2018-09-15T08:00:05.450Z,17.40
2018-09-15T08:06:10.390Z,16.90
2018-09-15T08:12:16.262Z,16.70
2018-09-15T08:18:21.038Z,17.30
2018-09-15T08:24:25.779Z,17.50
2018-09-15T08:30:30.505Z,16.90
2018-09-15T08:36:35.192Z,17.00
2018-09-15T08:42:39.980Z,16.80
2018-09-15T08:48:44.638Z,16.80
2018-09-15T08:54:49.739Z,17.00
2018-09-15T09:00:54.547Z,16.90
2018-09-15T09:06:59.351Z,17.60
2018-09-15T09:13:04.115Z,19.60
2018-09-15T09:19:09.108Z,21.50
2018-09-15T09:25:14.704Z,22.70
2018-09-15T09:31:19.488Z,24.10
2018-09-15T09:37:24.155Z,24.40
2018-09-15T09:43:28.874Z,24.30
2018-09-15T09:49:33.528Z,24.10
2018-09-15T09:55:38.240Z,25.20
2018-09-15T10:01:48.408Z,25.20
2018-09-15T10:07:53.101Z,26.50
2018-09-15T10:13:57.828Z,27.00
2018-09-15T10:20:02.787Z,26.60
2018-09-15T10:26:08.072Z,23.90
2018-09-15T10:32:12.807Z,22.00
2018-09-15T10:38:17.443Z,21.50
2018-09-15T10:44:22.216Z,22.60
2018-09-15T10:50:26.881Z,25.20
2018-09-15T10:56:31.610Z,23.30
2018-09-15T11:02:36.877Z,21.20
2018-09-15T11:08:41.831Z,19.90
2018-09-15T11:14:46.734Z,19.50
2018-09-15T11:20:51.439Z,19.40
2018-09-15T11:26:56.451Z,19.90
2018-09-15T11:33:01.458Z,20.00
2018-09-15T11:39:13.242Z,20.30
2018-09-15T11:45:18.599Z,21.70
2018-09-15T11:51:23.780Z,21.60
2018-09-15T11:57:29.124Z,20.90
2018-09-15T12:03:33.752Z,21.80
2018-09-15T12:09:38.511Z,23.30
2018-09-15T12:15:43.706Z,22.50
2018-09-15T12:21:48.435Z,22.00
2018-09-15T12:27:53.295Z,21.20
2018-09-15T12:33:58.104Z,20.80
2018-09-15T12:40:02.895Z,21.10
2018-09-15T12:46:07.830Z,21.00
2018-09-15T12:52:12.577Z,20.80
2018-09-15T12:58:17.636Z,20.70
2018-09-15T13:04:22.316Z,21.40
2018-09-15T13:10:27.065Z,23.10
2018-09-15T13:16:31.776Z,24.00
2018-09-15T13:22:36.467Z,24.40
2018-09-15T13:28:41.971Z,23.10
2018-09-15T13:34:46.636Z,22.50
2018-09-15T13:40:51.434Z,21.70
2018-09-15T13:46:56.238Z,20.90
2018-09-15T13:53:01.204Z,20.20
2018-09-15T13:59:06.313Z,19.50
2018-09-15T14:05:12.524Z,19.10
2018-09-15T14:11:17.383Z,18.90
2018-09-15T14:17:22.124Z,18.70
2018-09-15T14:23:27.064Z,18.60
2018-09-15T14:29:32.258Z,18.70
2018-09-15T14:35:37.259Z,18.70
2018-09-15T14:41:42.336Z,18.80
2018-09-15T14:47:47.828Z,18.90
2018-09-15T14:53:52.631Z,19.00
2018-09-15T14:59:57.332Z,19.10
2018-09-15T15:06:02.069Z,19.20
2018-09-15T15:12:06.776Z,19.50
2018-09-15T15:18:12.291Z,19.50
2018-09-15T15:24:17.288Z,19.30
2018-09-15T15:30:22.133Z,19.20
2018-09-15T15:36:26.828Z,19.00
2018-09-15T15:42:31.500Z,18.90
2018-09-15T15:48:36.371Z,18.80
2018-09-15T15:54:41.302Z,18.70
2018-09-15T16:00:46.750Z,18.70
2018-09-15T16:06:51.750Z,18.80
2018-09-15T16:12:56.417Z,18.80
2018-09-15T16:19:01.316Z,18.80
2018-09-15T16:25:06.085Z,18.90
2018-09-15T16:31:11.744Z,18.70
2018-09-15T16:37:16.720Z,18.70
2018-09-15T16:43:21.452Z,18.60
2018-09-15T16:49:26.163Z,18.50
2018-09-15T16:55:31.101Z,18.50
2018-09-15T17:01:36.265Z,18.60
2018-09-15T17:07:41.139Z,18.60
2018-09-15T17:13:46.121Z,18.50
2018-09-15T17:19:51.424Z,18.30
2018-09-15T17:25:56.129Z,18.10
2018-09-15T17:32:00.979Z,18.10
2018-09-15T17:38:05.941Z,17.90
2018-09-15T17:44:10.948Z,17.90
2018-09-15T17:50:15.804Z,17.70
2018-09-15T17:56:20.515Z,17.60
2018-09-15T18:02:25.300Z,17.50
2018-09-15T18:08:30.175Z,17.40
2018-09-15T18:14:34.901Z,17.40
2018-09-15T18:20:39.730Z,17.30
2018-09-15T18:26:44.515Z,17.20
2018-09-15T18:32:49.268Z,17.00
2018-09-15T18:38:53.953Z,16.90
2018-09-15T18:44:58.770Z,16.80
2018-09-15T18:51:03.564Z,16.70
2018-09-15T18:57:08.366Z,16.60
2018-09-15T19:03:16.822Z,16.50
2018-09-15T19:09:21.557Z,16.50
2018-09-15T19:15:27.320Z,16.50
2018-09-15T19:21:32.279Z,16.40
2018-09-15T19:27:37.094Z,16.30
2018-09-15T19:33:42.097Z,16.10
2018-09-15T19:39:46.897Z,16.00
2018-09-15T19:45:51.627Z,15.80
2018-09-15T19:51:56.410Z,15.60
2018-09-15T19:58:01.274Z,15.60
2018-09-15T20:04:06.384Z,15.60
2018-09-15T20:10:11.361Z,15.50
2018-09-15T20:16:14.325Z,15.30
2018-09-15T20:22:19.056Z,15.30
2018-09-15T20:28:23.754Z,15.30
2018-09-15T20:34:28.448Z,15.40
2018-09-15T20:40:33.385Z,15.10
2018-09-15T20:46:38.133Z,14.80
2018-09-15T20:52:43.631Z,14.60
2018-09-15T20:58:48.554Z,14.60
2018-09-15T21:04:53.364Z,14.60
2018-09-15T21:10:58.080Z,14.70
2018-09-15T21:17:02.884Z,14.80
2018-09-15T21:23:08.277Z,14.80
2018-09-15T21:29:13.328Z,14.70
2018-09-15T21:35:18.616Z,14.50
2018-09-15T21:41:23.308Z,14.30
2018-09-15T21:47:28.349Z,14.10
2018-09-15T21:53:33.190Z,14.00
2018-09-15T21:59:37.989Z,13.90
2018-09-15T22:05:42.884Z,13.80
2018-09-15T22:11:47.770Z,13.70
2018-09-15T22:17:52.705Z,13.70
2018-09-15T22:23:57.610Z,13.60
2018-09-15T22:30:02.303Z,13.50
2018-09-15T22:36:07.402Z,13.40
2018-09-15T22:42:13.243Z,13.30
2018-09-15T22:48:18.181Z,13.20
2018-09-15T22:54:22.907Z,13.10
2018-09-15T23:00:27.564Z,12.90
2018-09-15T23:06:32.496Z,12.80
2018-09-15T23:12:37.244Z,12.80
2018-09-15T23:18:42.830Z,12.80
2018-09-15T23:24:47.640Z,12.70
2018-09-15T23:30:52.400Z,12.70
2018-09-15T23:36:57.354Z,12.60
2018-09-15T23:43:02.344Z,12.60
2018-09-15T23:49:07.061Z,12.40
2018-09-15T23:55:12.859Z,12.30
